Time;durP1;ratioP1;P1;durP2;ratioP2;P2;SDS_P1;SDS_P2;PMS_P1;PMS_P2;Temp;Humidity;BMP_temperature;BMP_pressure;BME280_temperature;BME280_humidity;BME280_pressure;Samples;Min_cycle;Max_cycle;Signal;HPM_P1;HPM_P2
2023/06/06 00:02:13;;;;;;;5.70;3.20;;;;;;;13.78;55.78;99979.67;107281;1257;60466;-41
2023/06/06 00:04:41;;;;;;;4.90;3.10;;;;;;;13.75;55.94;99980.31;107478;1260;60368;-40
2023/06/06 00:07:09;;;;;;;7.10;3.30;;;;;;;13.73;56.03;99975.45;107472;1259;72673;-40
2023/06/06 00:09:36;;;;;;;6.00;3.10;;;;;;;13.71;55.90;99977.21;107337;1257;67643;-40
2023/06/06 00:12:12;;;;;;;4.90;2.90;;;;;;;13.71;56.03;99975.11;107330;1258;71416;-40
2023/06/06 00:14:41;;;;;;;7.40;3.40;;;;;;;13.70;56.02;99978.52;107334;1260;60458;-40
2023/06/06 00:17:09;;;;;;;4.90;3.20;;;;;;;13.68;55.94;99973.67;107521;1257;60380;-40
2023/06/06 00:19:42;;;;;;;7.80;3.00;;;;;;;13.67;56.02;99978.86;107326;1260;72243;-40
2023/06/06 00:22:10;;;;;;;6.00;3.30;;;;;;;13.65;56.14;99977.51;107389;1260;66652;-40
2023/06/06 00:24:37;;;;;;;7.10;3.60;;;;;;;13.63;56.14;99977.64;107292;1258;72667;-40
2023/06/06 00:27:05;;;;;;;4.70;3.40;;;;;;;13.61;56.29;99977.98;107438;1260;60274;-40
2023/06/06 00:29:33;;;;;;;5.30;3.00;;;;;;;13.60;56.51;99979.38;107302;1257;60294;-40
2023/06/06 00:32:01;;;;;;;4.80;3.20;;;;;;;13.60;56.44;99977.42;107283;1260;72531;-40
2023/06/06 00:34:28;;;;;;;6.60;3.20;;;;;;;13.59;56.41;99979.73;107329;1257;67955;-40
2023/06/06 00:36:56;;;;;;;5.80;3.10;;;;;;;13.57;56.40;99975.59;107316;1257;72728;-40
2023/06/06 00:39:24;;;;;;;4.60;3.20;;;;;;;13.56;56.48;99978.91;107294;1260;60472;-40
2023/06/06 00:41:51;;;;;;;8.80;3.30;;;;;;;13.53;56.72;99979.10;107304;1257;59697;-40
2023/06/06 00:44:20;;;;;;;5.20;3.30;;;;;;;13.50;56.74;99976.48;107293;1257;73910;-40
2023/06/06 00:46:48;;;;;;;5.20;3.40;;;;;;;13.48;56.30;99981.81;107078;1262;67566;-40
2023/06/06 00:49:16;;;;;;;5.70;3.50;;;;;;;13.45;56.64;99977.19;107033;1259;72690;-40
2023/06/06 00:51:44;;;;;;;5.60;3.40;;;;;;;13.41;56.85;99978.58;107032;1256;60426;-40
2023/06/06 00:54:13;;;;;;;6.00;3.20;;;;;;;13.38;56.86;99978.46;107084;1257;60369;-41
2023/06/06 00:56:43;;;;;;;6.20;3.90;;;;;;;13.37;56.97;99978.27;107058;1263;72565;-39
2023/06/06 00:59:11;;;;;;;6.60;3.40;;;;;;;13.36;57.05;99977.17;107167;1257;67856;-40
2023/06/06 01:01:39;;;;;;;5.70;3.40;;;;;;;13.36;57.07;99976.31;107203;1259;72767;-40
2023/06/06 01:04:08;;;;;;;6.70;3.60;;;;;;;13.34;57.30;99976.45;107054;1257;60406;-39
2023/06/06 01:06:39;;;;;;;6.90;3.30;;;;;;;13.33;57.31;99976.42;107094;1262;60647;-40
2023/06/06 01:09:08;;;;;;;5.60;3.50;;;;;;;13.31;57.38;99978.09;107214;1257;73073;-40
2023/06/06 01:11:51;;;;;;;4.20;3.30;;;;;;;13.28;57.45;99979.04;107227;1262;67543;-40
2023/06/06 01:14:41;;;;;;;6.90;3.30;;;;;;;13.25;57.63;99980.34;107166;1257;72678;-40
2023/06/06 01:17:09;;;;;;;5.80;3.40;;;;;;;13.23;57.71;99976.79;106934;1261;173796;-40
2023/06/06 01:21:42;;;;;;;5.80;3.30;;;;;;;13.21;57.94;99979.31;104109;1290;601220;-40
2023/06/06 01:24:12;;;;;;;5.70;3.20;;;;;;;13.18;58.04;99977.79;106606;1267;60075;-39
2023/06/06 01:26:40;;;;;;;4.80;3.20;;;;;;;13.18;58.07;99974.83;106567;1267;59147;-39
2023/06/06 01:29:08;;;;;;;5.20;3.40;;;;;;;13.17;58.09;99974.49;106629;1271;72732;-39
2023/06/06 01:31:39;;;;;;;6.30;3.30;;;;;;;13.14;57.99;99975.06;106602;1270;66392;-40
2023/06/06 01:34:07;;;;;;;6.10;3.20;;;;;;;13.10;58.03;99972.77;106603;1267;72821;-40
2023/06/06 01:36:56;;;;;;;5.50;3.50;;;;;;;13.08;58.19;99977.73;106559;1264;59544;-40
2023/06/06 01:39:24;;;;;;;5.60;3.60;;;;;;;13.07;57.99;99975.67;106669;1269;59230;-40
2023/06/06 01:41:54;;;;;;;6.70;3.50;;;;;;;13.04;57.85;99979.98;106663;1269;72287;-40
2023/06/06 01:44:22;;;;;;;4.60;3.40;;;;;;;13.00;57.91;99983.49;106749;1270;67642;-40
2023/06/06 01:46:49;;;;;;;7.60;4.00;;;;;;;12.96;57.98;99984.98;106623;1264;72708;-40
2023/06/06 01:49:17;;;;;;;6.70;3.50;;;;;;;12.92;58.06;99985.98;106636;1263;60084;-40
2023/06/06 01:51:45;;;;;;;7.60;3.50;;;;;;;12.90;58.43;99986.02;106649;1264;59573;-40
2023/06/06 01:54:12;;;;;;;5.80;3.40;;;;;;;12.88;58.54;99984.50;106722;1263;72178;-40
2023/06/06 01:56:40;;;;;;;5.40;3.40;;;;;;;12.86;58.63;99984.15;106676;1264;67726;-39
2023/06/06 01:59:09;;;;;;;5.70;3.50;;;;;;;12.83;58.58;99984.63;106694;1267;71435;-40
2023/06/06 02:01:37;;;;;;;6.20;3.40;;;;;;;12.81;58.60;99986.23;106730;1267;61065;-40
2023/06/06 02:04:04;;;;;;;10.30;3.30;;;;;;;12.80;58.78;99983.49;106708;1264;60026;-39
2023/06/06 02:06:32;;;;;;;5.70;3.20;;;;;;;12.80;58.77;99982.02;106745;1264;73060;-39
2023/06/06 02:09:00;;;;;;;6.50;3.40;;;;;;;12.81;58.67;99985.46;106721;1268;66468;-39
2023/06/06 02:11:29;;;;;;;6.80;3.80;;;;;;;12.82;58.80;99983.20;106716;1268;72734;-39
2023/06/06 02:13:57;;;;;;;5.50;3.30;;;;;;;12.83;58.94;99986.02;106695;1264;60115;-39
2023/06/06 02:16:24;;;;;;;9.20;3.40;;;;;;;12.84;59.03;99989.16;106709;1264;59474;-40
2023/06/06 02:18:52;;;;;;;8.60;3.40;;;;;;;12.85;59.10;99990.81;106783;1264;73015;-39
2023/06/06 02:21:20;;;;;;;7.50;2.90;;;;;;;12.87;59.34;99989.98;106643;1271;67577;-40
2023/06/06 02:23:49;;;;;;;6.10;3.00;;;;;;;12.92;59.40;99993.13;106704;1267;72494;-40
2023/06/06 02:26:17;;;;;;;6.70;3.20;;;;;;;13.01;59.24;99991.20;106719;1265;59606;-40
2023/06/06 02:28:44;;;;;;;6.60;2.90;;;;;;;13.08;59.36;99993.55;106713;1270;60057;-39
2023/06/06 02:31:14;;;;;;;12.30;3.50;;;;;;;13.14;59.23;99995.29;106710;1267;71760;-39
2023/06/06 02:33:42;;;;;;;4.20;3.20;;;;;;;13.21;59.57;99994.56;106760;1264;67896;-39
2023/06/06 02:36:14;;;;;;;7.50;3.50;;;;;;;13.26;59.75;99995.13;106714;1267;72933;-39
2023/06/06 02:38:42;;;;;;;6.40;3.00;;;;;;;13.31;59.85;99996.22;106711;1265;59775;-39
2023/06/06 02:41:10;;;;;;;7.10;3.10;;;;;;;13.35;60.10;99994.98;106772;1268;59514;-39
2023/06/06 02:43:40;;;;;;;6.60;3.30;;;;;;;13.40;60.47;99995.45;106734;1267;71772;-40
2023/06/06 02:46:08;;;;;;;6.70;3.10;;;;;;;13.45;60.68;99999.89;106726;1267;67823;-40
2023/06/06 02:48:36;;;;;;;5.90;3.30;;;;;;;13.48;60.90;99998.32;106664;1267;73219;-39
2023/06/06 02:51:04;;;;;;;6.60;3.00;;;;;;;13.52;60.69;100003.44;106730;1268;59238;-39
2023/06/06 02:53:32;;;;;;;5.60;3.30;;;;;;;13.56;60.87;100002.98;106736;1266;59674;-38
2023/06/06 02:56:00;;;;;;;5.30;3.00;;;;;;;13.60;60.84;100000.30;106854;1263;72897;-39
2023/06/06 02:58:30;;;;;;;5.70;3.10;;;;;;;13.65;61.05;100005.83;106889;1262;67571;-39
2023/06/06 03:01:00;;;;;;;5.80;3.10;;;;;;;13.70;61.15;100000.01;106904;1267;72733;-39
2023/06/06 03:03:28;;;;;;;10.30;3.60;;;;;;;13.77;60.98;99997.80;106898;1263;60781;-39
2023/06/06 03:05:56;;;;;;;7.00;3.70;;;;;;;13.88;60.64;99999.45;106857;1262;59470;-39
2023/06/06 03:08:24;;;;;;;12.90;4.00;;;;;;;13.97;60.72;100001.45;106878;1266;73094;-40
2023/06/06 03:10:51;;;;;;;8.70;3.40;;;;;;;14.06;61.00;99999.17;106849;1261;66301;-39
2023/06/06 03:13:20;;;;;;;6.80;3.40;;;;;;;14.15;60.93;99998.77;106867;1262;72340;-39
2023/06/06 03:15:48;;;;;;;4.80;3.00;;;;;;;14.22;60.23;99999.10;106918;1263;59731;-40
2023/06/06 03:18:20;;;;;;;4.50;3.00;;;;;;;14.29;60.17;100002.70;106986;1264;59247;-39
2023/06/06 03:20:53;;;;;;;4.50;2.90;;;;;;;14.37;60.46;100001.66;107030;1260;71753;-40
2023/06/06 03:23:22;;;;;;;4.70;2.90;;;;;;;14.46;60.28;99998.67;107062;1260;67049;-40
2023/06/06 03:25:51;;;;;;;7.50;3.10;;;;;;;14.53;60.37;99997.76;107045;1264;72730;-39
2023/06/06 03:28:20;;;;;;;4.30;2.80;;;;;;;14.59;60.14;99990.35;107068;1260;59706;-39
2023/06/06 03:30:51;;;;;;;5.00;2.70;;;;;;;14.68;60.37;99998.35;107066;1260;60224;-40
2023/06/06 03:33:19;;;;;;;7.90;3.20;;;;;;;14.76;60.46;99994.68;107045;1266;71799;-39
2023/06/06 03:35:47;;;;;;;9.00;3.10;;;;;;;14.82;60.80;99991.04;107010;1260;66352;-40
2023/06/06 03:38:14;;;;;;;6.50;2.60;;;;;;;14.93;60.96;99989.82;106882;1260;71781;-39
2023/06/06 03:40:43;;;;;;;8.50;3.10;;;;;;;15.04;60.54;99983.87;107003;1260;60377;-40
2023/06/06 03:43:10;;;;;;;4.20;2.80;;;;;;;15.19;60.41;99985.11;107068;1260;59563;-40
2023/06/06 03:45:39;;;;;;;5.40;2.60;;;;;;;15.33;60.59;99986.95;107053;1260;71871;-39
2023/06/06 03:48:09;;;;;;;5.70;2.90;;;;;;;15.43;60.18;99989.17;107133;1264;66569;-40
2023/06/06 03:50:38;;;;;;;6.50;3.10;;;;;;;15.56;60.03;99990.33;107063;1261;72684;-40
2023/06/06 03:53:06;;;;;;;13.60;4.10;;;;;;;15.68;60.57;99991.37;107096;1261;59631;-40
2023/06/06 03:55:34;;;;;;;8.40;3.50;;;;;;;15.80;60.44;99992.72;107047;1260;60484;-39
2023/06/06 03:58:02;;;;;;;8.20;3.00;;;;;;;15.92;59.44;99994.61;107074;1260;72827;-40
2023/06/06 04:00:31;;;;;;;8.70;3.00;;;;;;;16.01;58.73;99996.63;107067;1264;66359;-40
2023/06/06 04:03:00;;;;;;;7.70;3.10;;;;;;;16.09;58.66;100000.52;107066;1264;71389;-40
2023/06/06 04:05:28;;;;;;;5.40;2.60;;;;;;;16.16;56.77;100002.36;107014;1261;59701;-40
2023/06/06 04:07:56;;;;;;;3.90;2.50;;;;;;;16.23;54.97;99998.25;107268;1257;59237;-40
2023/06/06 04:10:23;;;;;;;4.60;2.50;;;;;;;16.31;54.38;99995.25;107280;1257;73028;-40
2023/06/06 04:12:51;;;;;;;4.50;2.90;;;;;;;16.41;53.83;99994.45;107276;1257;66337;-40
2023/06/06 04:15:20;;;;;;;4.90;2.80;;;;;;;16.51;52.98;99998.65;107290;1256;72740;-40
2023/06/06 04:17:47;;;;;;;4.50;2.50;;;;;;;16.60;52.94;99995.66;107263;1255;60319;-40
2023/06/06 04:20:15;;;;;;;4.20;2.70;;;;;;;16.68;52.36;99993.05;107191;1258;59660;-40
2023/06/06 04:22:45;;;;;;;4.70;3.10;;;;;;;16.77;52.21;99994.41;107078;1260;71791;-40
2023/06/06 04:25:15;;;;;;;4.20;2.90;;;;;;;16.85;51.85;99993.04;107173;1257;66844;-40
2023/06/06 04:27:45;;;;;;;5.80;2.80;;;;;;;16.95;51.60;99994.95;107026;1259;72987;-39
2023/06/06 04:30:13;;;;;;;4.60;2.50;;;;;;;17.03;51.68;99996.08;106969;1257;60522;-38
2023/06/06 04:32:41;;;;;;;5.50;2.70;;;;;;;17.11;51.85;99993.73;107066;1258;59496;-39
2023/06/06 04:35:11;;;;;;;4.30;2.80;;;;;;;17.20;52.27;99993.45;107177;1257;72263;-39
2023/06/06 04:37:41;;;;;;;4.60;2.90;;;;;;;17.29;52.20;99987.76;107049;1257;67709;-40
2023/06/06 04:40:10;;;;;;;3.30;2.50;;;;;;;17.37;51.67;99988.23;107058;1257;71423;-39
2023/06/06 04:42:39;;;;;;;4.60;2.90;;;;;;;17.46;51.12;99989.19;107207;1258;59890;-39
2023/06/06 04:45:09;;;;;;;4.80;2.80;;;;;;;17.54;50.93;99991.00;107062;1257;60109;-39
2023/06/06 04:47:40;;;;;;;4.50;2.50;;;;;;;17.64;51.04;99992.20;107072;1263;73120;-39
2023/06/06 04:50:08;;;;;;;6.40;2.80;;;;;;;17.71;50.57;99991.34;107100;1263;67569;-39
2023/06/06 04:52:37;;;;;;;5.30;2.60;;;;;;;17.79;50.25;99994.56;107050;1260;71462;-39
2023/06/06 04:55:05;;;;;;;3.60;2.60;;;;;;;17.87;50.26;99997.52;107046;1259;59621;-39
2023/06/06 04:57:33;;;;;;;8.00;2.90;;;;;;;17.96;50.81;99994.63;107054;1257;59577;-39
2023/06/06 05:00:01;;;;;;;5.50;3.00;;;;;;;18.05;50.84;99996.50;107081;1257;73094;-39
2023/06/06 05:02:29;;;;;;;5.00;3.00;;;;;;;18.13;49.48;99993.51;107116;1263;67563;-39
2023/06/06 05:04:58;;;;;;;7.10;2.50;;;;;;;18.22;49.23;99992.31;107031;1258;73044;-39
2023/06/06 05:07:25;;;;;;;4.40;2.70;;;;;;;18.33;49.14;99995.50;107073;1258;59618;-39
2023/06/06 05:09:54;;;;;;;7.90;2.60;;;;;;;18.43;48.89;99993.67;107180;1257;59484;-39
2023/06/06 05:12:22;;;;;;;3.10;2.70;;;;;;;18.54;49.07;99994.91;107091;1257;73106;-39
2023/06/06 05:14:50;;;;;;;3.30;2.40;;;;;;;18.64;49.15;99994.11;107127;1258;67912;-40
2023/06/06 05:17:20;;;;;;;4.80;2.30;;;;;;;18.75;49.33;99993.51;107047;1259;72868;-39
2023/06/06 05:19:48;;;;;;;5.90;2.70;;;;;;;18.86;47.71;99993.22;107082;1257;60083;-39
2023/06/06 05:22:16;;;;;;;5.90;2.40;;;;;;;18.95;46.92;99991.23;107287;1258;59733;-39
2023/06/06 05:24:44;;;;;;;4.80;2.40;;;;;;;19.05;46.20;99994.16;107394;1257;73516;-39
2023/06/06 05:27:12;;;;;;;3.40;2.10;;;;;;;19.15;45.90;99990.73;107458;1258;67615;-39
2023/06/06 05:29:41;;;;;;;4.00;2.60;;;;;;;19.25;46.20;99991.99;107317;1257;71419;-39
2023/06/06 05:32:09;;;;;;;5.00;2.70;;;;;;;19.35;46.03;99991.46;107358;1257;60491;-41
2023/06/06 05:34:38;;;;;;;3.00;2.50;;;;;;;19.45;46.16;99990.08;107334;1255;60164;-41
2023/06/06 05:37:06;;;;;;;3.30;2.60;;;;;;;19.55;46.57;99987.81;107345;1256;73785;-39
2023/06/06 05:39:34;;;;;;;7.60;2.60;;;;;;;19.65;46.42;99989.71;107323;1256;66425;-39
2023/06/06 05:42:01;;;;;;;2.60;2.20;;;;;;;19.75;45.62;99990.02;107336;1256;73286;-40
2023/06/06 05:44:29;;;;;;;6.40;2.60;;;;;;;19.85;45.11;99989.38;107333;1257;60722;-39
2023/06/06 05:46:57;;;;;;;4.80;2.60;;;;;;;19.94;44.89;99988.27;107338;1255;60405;-39
2023/06/06 05:49:25;;;;;;;3.60;2.60;;;;;;;20.04;45.28;99985.27;107364;1256;73863;-39
2023/06/06 05:51:52;;;;;;;3.50;2.40;;;;;;;20.14;45.47;99984.63;107361;1257;67554;-39
2023/06/06 05:54:22;;;;;;;5.50;2.50;;;;;;;20.24;45.03;99983.57;107317;1260;72648;-39
2023/06/06 05:56:50;;;;;;;3.80;2.50;;;;;;;20.36;44.03;99987.10;107348;1255;60764;-39
2023/06/06 05:59:18;;;;;;;6.10;2.50;;;;;;;20.47;43.88;99988.23;107386;1258;60035;-39
2023/06/06 06:01:47;;;;;;;4.20;2.40;;;;;;;20.58;43.22;99989.99;107354;1260;73839;-39
2023/06/06 06:04:19;;;;;;;3.70;2.70;;;;;;;20.69;43.25;99992.30;107344;1256;68005;-39
2023/06/06 06:06:46;;;;;;;4.50;2.40;;;;;;;20.78;42.87;99992.36;107328;1257;72827;-40
2023/06/06 06:09:16;;;;;;;5.80;2.30;;;;;;;20.87;42.54;99991.38;107391;1257;60433;-39
2023/06/06 06:11:43;;;;;;;7.30;2.50;;;;;;;20.98;42.52;99996.50;107386;1257;60405;-39
2023/06/06 06:14:11;;;;;;;3.50;2.30;;;;;;;21.09;42.36;99990.30;107358;1255;72539;-40
2023/06/06 06:16:39;;;;;;;3.30;2.30;;;;;;;21.19;41.49;99990.95;107474;1257;66291;-39
2023/06/06 06:19:08;;;;;;;5.00;2.40;;;;;;;21.29;41.35;99988.94;107359;1260;70705;-40
2023/06/06 06:21:36;;;;;;;4.30;2.60;;;;;;;21.39;41.07;99989.73;107306;1254;60331;-40
2023/06/06 06:24:05;;;;;;;3.20;2.40;;;;;;;21.48;40.77;99987.85;107380;1257;60294;-40
2023/06/06 06:26:32;;;;;;;4.50;2.10;;;;;;;21.58;40.16;99988.65;107418;1256;72555;-40
2023/06/06 06:29:00;;;;;;;8.70;2.60;;;;;;;21.70;40.53;99987.18;107494;1257;67550;-40
2023/06/06 06:31:28;;;;;;;4.80;2.40;;;;;;;21.81;40.25;99985.52;107362;1257;71431;-40
2023/06/06 06:33:55;;;;;;;4.90;2.20;;;;;;;21.90;39.41;99986.86;107474;1256;60407;-40
2023/06/06 06:36:24;;;;;;;4.10;2.20;;;;;;;21.97;39.11;99989.04;107375;1257;60319;-40
2023/06/06 06:38:51;;;;;;;4.90;2.20;;;;;;;22.06;38.81;99986.43;107348;1257;73848;-40
2023/06/06 06:41:20;;;;;;;3.80;2.10;;;;;;;22.16;38.70;99986.42;107364;1257;67575;-40
2023/06/06 06:43:48;;;;;;;4.20;2.20;;;;;;;22.25;38.01;99986.18;107341;1257;72498;-40
2023/06/06 06:46:16;;;;;;;3.30;1.80;;;;;;;22.35;36.76;99986.94;107381;1257;60726;-40
2023/06/06 06:48:45;;;;;;;3.80;1.60;;;;;;;22.44;35.78;99991.02;107377;1255;60447;-41
2023/06/06 06:51:13;;;;;;;3.90;2.00;;;;;;;22.54;34.89;99988.30;107490;1257;73895;-40
2023/06/06 06:53:41;;;;;;;3.10;1.80;;;;;;;22.65;35.10;99989.29;107329;1256;67949;-40
2023/06/06 06:56:09;;;;;;;3.50;1.90;;;;;;;22.77;34.62;99988.25;107368;1257;72753;-40
2023/06/06 06:58:37;;;;;;;3.40;1.90;;;;;;;22.92;34.88;99988.02;107346;1257;61018;-40
2023/06/06 07:01:05;;;;;;;3.60;1.90;;;;;;;23.09;35.29;99982.98;107353;1255;60485;-40
2023/06/06 07:03:34;;;;;;;4.90;2.10;;;;;;;23.24;35.35;99980.90;107332;1257;73926;-40
2023/06/06 07:06:05;;;;;;;3.50;2.10;;;;;;;23.39;33.95;99984.27;107445;1259;66920;-40
2023/06/06 07:08:32;;;;;;;3.80;1.80;;;;;;;23.51;33.92;99980.14;107387;1257;72676;-40
2023/06/06 07:11:00;;;;;;;3.10;1.70;;;;;;;23.62;33.62;99978.69;107425;1255;60178;-40
2023/06/06 07:13:27;;;;;;;5.00;2.00;;;;;;;23.72;31.89;99981.98;107324;1257;59669;-40
2023/06/06 07:15:55;;;;;;;5.60;1.90;;;;;;;23.78;31.34;99984.15;107351;1255;73805;-40
2023/06/06 07:18:24;;;;;;;2.60;1.70;;;;;;;23.77;31.11;99986.06;107726;1251;67938;-40
2023/06/06 07:20:51;;;;;;;4.30;2.20;;;;;;;23.73;30.75;99983.58;107719;1251;72634;-40
2023/06/06 07:23:20;;;;;;;3.60;1.60;;;;;;;23.68;30.35;99988.18;107712;1252;60519;-40
2023/06/06 07:25:47;;;;;;;4.90;1.80;;;;;;;23.68;30.53;99987.40;107708;1256;60024;-40
2023/06/06 07:28:15;;;;;;;3.10;1.80;;;;;;;23.74;30.93;99984.71;107800;1251;73864;-40
2023/06/06 07:30:43;;;;;;;3.30;2.10;;;;;;;23.84;31.73;99978.86;107737;1251;67084;-40
2023/06/06 07:33:10;;;;;;;4.70;1.70;;;;;;;23.97;30.83;99979.00;107696;1251;71123;-40
2023/06/06 07:35:38;;;;;;;5.60;1.90;;;;;;;24.08;31.50;99976.96;107745;1254;60289;-40
2023/06/06 07:38:06;;;;;;;5.60;2.00;;;;;;;24.22;31.48;99975.04;107736;1251;60421;-40
2023/06/06 07:40:34;;;;;;;4.10;1.80;;;;;;;24.37;31.41;99973.27;107735;1251;72636;-40
2023/06/06 07:43:02;;;;;;;3.60;1.80;;;;;;;24.52;31.29;99972.00;107728;1251;67547;-40
2023/06/06 07:45:29;;;;;;;6.00;2.00;;;;;;;24.64;30.65;99966.23;107705;1253;72498;-40
2023/06/06 07:47:58;;;;;;;4.50;1.90;;;;;;;24.76;30.51;99971.15;107717;1251;60834;-40
2023/06/06 07:50:26;;;;;;;4.00;2.00;;;;;;;24.84;30.08;99971.48;107745;1251;60351;-40
2023/06/06 07:52:53;;;;;;;4.20;2.00;;;;;;;24.91;29.82;99973.42;107723;1257;73235;-40
2023/06/06 07:55:22;;;;;;;3.50;1.90;;;;;;;24.99;30.31;99970.39;107690;1251;67581;-40
2023/06/06 07:57:50;;;;;;;4.10;2.10;;;;;;;25.11;30.24;99971.40;107744;1251;71423;-40
2023/06/06 08:00:18;;;;;;;3.20;2.10;;;;;;;25.24;30.24;99973.92;107734;1251;60501;-40
2023/06/06 08:02:46;;;;;;;4.30;2.20;;;;;;;25.37;30.30;99974.30;107827;1251;60393;-40
2023/06/06 08:05:13;;;;;;;4.00;2.10;;;;;;;25.49;30.47;99974.14;107714;1251;73815;-40
2023/06/06 08:07:44;;;;;;;3.50;1.80;;;;;;;25.61;29.80;99968.86;107778;1251;66278;-40
2023/06/06 08:10:12;;;;;;;4.10;2.20;;;;;;;25.66;28.96;99970.45;107755;1251;72690;-40
2023/06/06 08:12:40;;;;;;;4.00;2.00;;;;;;;25.65;28.55;99968.83;107731;1251;60383;-40
2023/06/06 08:15:09;;;;;;;3.20;2.10;;;;;;;25.66;28.96;99971.58;107752;1256;59333;-40
2023/06/06 08:17:37;;;;;;;3.90;2.00;;;;;;;25.75;29.54;99969.91;107749;1251;73871;-40
2023/06/06 08:20:08;;;;;;;4.00;2.00;;;;;;;25.91;29.08;99967.86;107768;1251;67546;-40
2023/06/06 08:22:40;;;;;;;4.50;2.00;;;;;;;26.03;28.02;99970.30;107769;1253;71378;-40
2023/06/06 08:25:08;;;;;;;4.70;2.10;;;;;;;26.13;28.60;99967.25;107734;1251;60427;-40
2023/06/06 08:27:36;;;;;;;3.70;2.00;;;;;;;26.30;28.75;99965.09;107758;1251;60296;-40
2023/06/06 08:30:05;;;;;;;3.70;2.20;;;;;;;26.41;28.35;99959.11;107712;1251;73807;-40
2023/06/06 08:32:33;;;;;;;4.10;2.10;;;;;;;26.54;28.67;99962.48;107818;1251;67634;-41
2023/06/06 08:35:05;;;;;;;5.40;2.10;;;;;;;26.67;27.05;99958.81;107734;1251;72661;-41
2023/06/06 08:37:33;;;;;;;3.30;2.00;;;;;;;26.69;26.87;99959.39;107761;1251;60489;-41
2023/06/06 08:40:00;;;;;;;5.40;2.40;;;;;;;26.65;26.72;99961.34;107751;1251;60302;-40
2023/06/06 08:42:30;;;;;;;4.70;2.10;;;;;;;26.58;26.81;99960.50;107757;1251;73859;-41
2023/06/06 08:44:57;;;;;;;3.70;2.10;;;;;;;26.40;26.79;99954.57;107744;1251;66287;-40
2023/06/06 08:47:25;;;;;;;4.50;2.40;;;;;;;26.17;26.85;99957.18;107733;1253;71489;-40
2023/06/06 08:49:53;;;;;;;2.80;2.20;;;;;;;25.90;27.35;99956.54;107761;1251;60506;-39
2023/06/06 08:52:21;;;;;;;3.60;2.00;;;;;;;25.65;27.53;99957.70;107722;1256;60401;-41
2023/06/06 08:54:50;;;;;;;4.60;2.20;;;;;;;25.45;28.53;99959.77;107768;1251;73964;-40
2023/06/06 08:57:19;;;;;;;4.70;2.00;;;;;;;25.28;28.94;99959.77;107715;1251;66550;-40
2023/06/06 08:59:47;;;;;;;4.70;1.90;;;;;;;25.11;28.78;99957.93;107733;1252;72768;-40
2023/06/06 09:02:17;;;;;;;4.20;2.10;;;;;;;24.99;29.04;99955.44;107571;1251;60334;-40
2023/06/06 09:04:45;;;;;;;2.70;1.90;;;;;;;24.95;28.85;99955.88;107723;1251;60299;-40
2023/06/06 09:07:14;;;;;;;2.20;1.90;;;;;;;24.96;28.51;99951.33;107575;1251;72992;-40
2023/06/06 09:09:45;;;;;;;2.70;2.10;;;;;;;24.96;27.95;99952.90;107550;1251;66568;-40
2023/06/06 09:12:13;;;;;;;3.60;2.00;;;;;;;24.98;28.51;99950.68;107562;1251;72694;-40
2023/06/06 09:14:42;;;;;;;3.50;2.00;;;;;;;25.09;28.15;99947.18;107727;1253;60429;-40
2023/06/06 09:17:15;;;;;;;5.50;2.20;;;;;;;25.21;27.63;99946.98;107734;1251;60398;-40
2023/06/06 09:19:46;;;;;;;3.10;1.90;;;;;;;25.35;27.82;99942.31;107798;1251;73870;-40
2023/06/06 09:22:14;;;;;;;3.30;2.10;;;;;;;25.55;26.80;99933.67;107833;1251;67865;-40
2023/06/06 09:24:43;;;;;;;3.10;1.80;;;;;;;25.76;26.49;99937.20;107716;1251;71098;-40
2023/06/06 09:27:28;;;;;;;;;;;;;;;25.92;26.34;99941.08;107718;1251;60295;-40
2023/06/06 09:29:56;;;;;;;3.00;1.90;;;;;;;25.99;26.49;99940.07;107718;1251;60293;-40
2023/06/06 09:32:30;;;;;;;4.00;2.20;;;;;;;26.09;26.25;99932.30;107708;1256;72596;-40
2023/06/06 09:35:03;;;;;;;4.90;2.40;;;;;;;26.28;26.34;99934.98;107758;1251;67550;-40
2023/06/06 09:37:31;;;;;;;4.20;2.20;;;;;;;26.47;26.16;99930.09;107773;1251;72956;-40
2023/06/06 09:40:13;;;;;;;2.40;2.00;;;;;;;26.62;25.49;99926.25;107716;1251;60437;-40
2023/06/06 09:42:48;;;;;;;2.80;2.00;;;;;;;26.74;24.74;99928.27;107781;1251;60318;-40
2023/06/06 09:45:16;;;;;;;4.20;2.20;;;;;;;26.74;24.44;99928.42;107789;1251;73819;-40
2023/06/06 09:47:47;;;;;;;3.00;1.90;;;;;;;26.75;24.14;99924.25;107756;1251;67638;-40
2023/06/06 09:50:19;;;;;;;2.20;1.90;;;;;;;26.85;24.69;99919.52;107750;1251;72807;-40
2023/06/06 09:52:54;;;;;;;3.80;2.10;;;;;;;27.04;24.74;99917.84;107791;1251;60427;-40
2023/06/06 09:55:22;;;;;;;3.70;2.20;;;;;;;27.19;24.37;99920.70;107768;1251;60498;-40
2023/06/06 09:57:50;;;;;;;3.60;2.00;;;;;;;27.24;23.92;99919.80;107785;1251;73848;-40
2023/06/06 10:00:18;;;;;;;4.00;2.10;;;;;;;27.30;24.41;99922.19;107590;1251;68121;-40
2023/06/06 10:02:47;;;;;;;7.00;2.50;;;;;;;27.43;24.84;99915.62;107726;1254;72713;-40
2023/06/06 10:05:18;;;;;;;4.90;2.40;;;;;;;27.55;25.02;99916.23;107683;1251;60152;-40
2023/06/06 10:07:46;;;;;;;3.20;1.90;;;;;;;27.61;24.18;99912.35;107732;1251;60428;-40
2023/06/06 10:10:15;;;;;;;3.70;2.10;;;;;;;27.58;24.15;99911.98;107721;1251;74457;-40
2023/06/06 10:12:43;;;;;;;3.10;1.80;;;;;;;27.59;23.93;99908.50;107605;1251;66450;-40
2023/06/06 10:15:11;;;;;;;2.40;2.10;;;;;;;27.64;24.15;99908.95;107630;1252;72719;-40
2023/06/06 10:17:40;;;;;;;4.10;2.20;;;;;;;27.77;24.01;99907.81;107566;1253;60451;-40
2023/06/06 10:20:12;;;;;;;3.20;2.10;;;;;;;27.88;23.28;99906.48;107567;1253;60502;-40
2023/06/06 10:22:40;;;;;;;7.20;2.00;;;;;;;27.89;23.39;99909.52;107472;1253;73762;-40
2023/06/06 10:25:12;;;;;;;7.50;2.20;;;;;;;27.86;23.58;99903.13;107504;1253;66824;-40
2023/06/06 10:27:44;;;;;;;3.20;1.80;;;;;;;27.93;23.62;99901.96;107530;1253;72741;-40
2023/06/06 10:30:15;;;;;;;8.90;2.70;;;;;;;28.08;23.91;99898.10;107453;1253;60393;-40
2023/06/06 10:33:21;;;;;;;3.80;2.30;;;;;;;28.23;23.16;99900.49;107509;1253;60374;-40
2023/06/06 10:35:51;;;;;;;2.90;1.80;;;;;;;28.35;23.16;99899.73;107047;1259;72617;-41
2023/06/06 10:38:18;;;;;;;4.80;2.00;;;;;;;28.49;23.03;99903.14;107382;1253;68059;-40
2023/06/06 10:40:46;;;;;;;5.10;2.30;;;;;;;28.74;22.78;99899.05;107462;1253;72738;-40
2023/06/06 10:43:15;;;;;;;2.90;1.90;;;;;;;29.07;23.15;99894.02;107455;1253;60396;-40
2023/06/06 10:46:00;;;;;;;3.20;2.10;;;;;;;29.46;23.35;99896.14;107395;1253;60046;-40
2023/06/06 10:48:48;;;;;;;6.30;2.00;;;;;;;29.57;22.39;99897.39;107497;1253;73883;-40
2023/06/06 10:51:36;;;;;;;2.90;2.00;;;;;;;29.37;22.08;99895.17;107481;1253;67579;-40
2023/06/06 10:54:14;;;;;;;3.90;2.00;;;;;;;29.02;22.00;99893.56;107482;1253;72714;-40
2023/06/06 10:56:54;;;;;;;3.80;1.90;;;;;;;28.67;21.89;99890.85;107486;1257;60118;-41
2023/06/06 10:59:28;;;;;;;3.00;1.90;;;;;;;28.41;22.46;99888.90;107496;1253;60214;-40
2023/06/06 11:01:56;;;;;;;4.10;2.10;;;;;;;28.15;22.83;99891.29;107463;1253;73870;-40
2023/06/06 11:04:25;;;;;;;2.40;2.00;;;;;;;27.91;23.78;99891.45;107459;1253;66837;-40
2023/06/06 11:06:54;;;;;;;2.60;2.20;;;;;;;27.75;23.86;99893.27;107474;1253;72752;-40
2023/06/06 11:09:22;;;;;;;5.50;2.40;;;;;;;27.76;23.68;99890.85;107398;1253;61023;-41
2023/06/06 11:12:11;;;;;;;4.70;2.50;;;;;;;27.93;23.26;99886.73;107497;1253;60195;-40
2023/06/06 11:14:54;;;;;;;2.70;2.20;;;;;;;28.34;23.14;99882.79;107514;1253;73955;-40
2023/06/06 11:17:32;;;;;;;3.80;2.30;;;;;;;28.71;22.61;99882.45;107511;1253;67912;-40
2023/06/06 11:20:00;;;;;;;3.90;2.30;;;;;;;28.80;21.71;99882.34;107451;1253;72709;-40
2023/06/06 11:22:30;;;;;;;3.00;1.80;;;;;;;28.81;22.40;99880.36;107530;1253;60354;-40
2023/06/06 11:24:58;;;;;;;3.30;2.30;;;;;;;28.91;21.95;99880.92;107501;1252;60412;-39
2023/06/06 11:27:26;;;;;;;3.20;1.90;;;;;;;29.11;22.25;99878.29;107621;1253;73853;-40
2023/06/06 11:29:56;;;;;;;6.50;2.30;;;;;;;29.40;21.79;99875.08;107618;1253;67906;-39
2023/06/06 11:32:25;;;;;;;4.30;2.10;;;;;;;29.81;21.55;99871.98;107517;1253;73116;-40
2023/06/06 11:34:57;;;;;;;;;;;;;;;30.29;20.45;99872.33;107550;1254;60429;-40
2023/06/06 11:37:25;;;;;;;2.80;2.10;;;;;;;30.66;19.95;99864.64;107549;1253;60336;-40